sensor_id;sensor_type;location;lat;lon;timestamp;pressure;altitude;pressure_sealevel;temperature;humidity
45040;BME280;30778;53.574;7.770;2022-08-11T00:01:46;102506.38;;;15.97;53.94
45040;BME280;30778;53.574;7.770;2022-08-11T00:04:13;102505.44;;;15.99;53.44
45040;BME280;30778;53.574;7.770;2022-08-11T00:06:40;102506.31;;;16.00;53.66
45040;BME280;30778;53.574;7.770;2022-08-11T00:09:08;102500.47;;;15.90;54.09
45040;BME280;30778;53.574;7.770;2022-08-11T00:11:45;102499.44;;;15.94;54.13
45040;BME280;30778;53.574;7.770;2022-08-11T00:17:01;102504.72;;;15.94;54.28
45040;BME280;30778;53.574;7.770;2022-08-11T00:19:43;102491.06;;;16.08;53.97
45040;BME280;30778;53.574;7.770;2022-08-11T00:22:10;102495.47;;;16.08;53.75
45040;BME280;30778;53.574;7.770;2022-08-11T00:24:38;102487.88;;;15.98;53.94
45040;BME280;30778;53.574;7.770;2022-08-11T00:27:05;102493.28;;;15.95;53.99
45040;BME280;30778;53.574;7.770;2022-08-11T00:29:32;102494.97;;;15.96;53.81
45040;BME280;30778;53.574;7.770;2022-08-11T00:31:59;102488.72;;;16.00;53.81
45040;BME280;30778;53.574;7.770;2022-08-11T00:34:31;102488.81;;;15.97;54.02
45040;BME280;30778;53.574;7.770;2022-08-11T00:37:02;102478.25;;;15.97;53.55
45040;BME280;30778;53.574;7.770;2022-08-11T00:39:31;102486.41;;;15.91;53.73
45040;BME280;30778;53.574;7.770;2022-08-11T00:47:26;102492.56;;;15.90;53.11
45040;BME280;30778;53.574;7.770;2022-08-11T01:32:00;102482.09;;;15.40;54.07
45040;BME280;30778;53.574;7.770;2022-08-11T01:35:11;102494.34;;;15.41;53.92
45040;BME280;30778;53.574;7.770;2022-08-11T01:38:06;102483.16;;;15.34;53.86
45040;BME280;30778;53.574;7.770;2022-08-11T01:46:42;102482.66;;;15.23;53.89
45040;BME280;30778;53.574;7.770;2022-08-11T01:49:34;102483.63;;;15.19;54.22
45040;BME280;30778;53.574;7.770;2022-08-11T01:57:52;102477.03;;;15.07;54.13
45040;BME280;30778;53.574;7.770;2022-08-11T02:00:25;102482.28;;;15.07;54.32
45040;BME280;30778;53.574;7.770;2022-08-11T02:02:57;102480.94;;;14.95;54.17
45040;BME280;30778;53.574;7.770;2022-08-11T02:10:51;102484.56;;;14.91;54.29
45040;BME280;30778;53.574;7.770;2022-08-11T02:13:52;102477.69;;;14.87;53.92
45040;BME280;30778;53.574;7.770;2022-08-11T02:22:30;102479.66;;;14.81;54.23
45040;BME280;30778;53.574;7.770;2022-08-11T02:25:37;102484.22;;;14.75;53.90
45040;BME280;30778;53.574;7.770;2022-08-11T02:28:18;102482.59;;;14.71;54.23
45040;BME280;30778;53.574;7.770;2022-08-11T02:30:59;102480.66;;;14.76;53.55
45040;BME280;30778;53.574;7.770;2022-08-11T02:33:47;102480.78;;;14.73;53.66
45040;BME280;30778;53.574;7.770;2022-08-11T02:36:19;102482.72;;;14.67;53.38
45040;BME280;30778;53.574;7.770;2022-08-11T02:41:25;102481.38;;;14.55;53.68
45040;BME280;30778;53.574;7.770;2022-08-11T02:49:50;102474.94;;;14.34;53.96
45040;BME280;30778;53.574;7.770;2022-08-11T02:57:40;102470.59;;;14.33;53.93
45040;BME280;30778;53.574;7.770;2022-08-11T03:00:12;102474.38;;;14.24;53.63
45040;BME280;30778;53.574;7.770;2022-08-11T03:02:49;102473.38;;;14.28;53.64
45040;BME280;30778;53.574;7.770;2022-08-11T03:05:32;102472.56;;;14.26;53.80
45040;BME280;30778;53.574;7.770;2022-08-11T03:08:13;102474.38;;;14.24;53.75
45040;BME280;30778;53.574;7.770;2022-08-11T03:11:04;102481.47;;;14.21;53.41
45040;BME280;30778;53.574;7.770;2022-08-11T03:14:12;102473.59;;;14.21;53.63
45040;BME280;30778;53.574;7.770;2022-08-11T03:30:24;102476.47;;;14.13;53.74
45040;BME280;30778;53.574;7.770;2022-08-11T03:38:47;102469.75;;;14.03;53.59
45040;BME280;30778;53.574;7.770;2022-08-11T04:06:48;102477.91;;;13.93;53.46
45040;BME280;30778;53.574;7.770;2022-08-11T04:12:33;102482.16;;;13.98;53.17
45040;BME280;30778;53.574;7.770;2022-08-11T04:18:21;102484.94;;;13.93;53.28
45040;BME280;30778;53.574;7.770;2022-08-11T04:33:09;102479.38;;;14.04;52.87
45040;BME280;30778;53.574;7.770;2022-08-11T04:39:48;102475.09;;;14.00;53.49
45040;BME280;30778;53.574;7.770;2022-08-11T05:13:50;102472.44;;;15.12;53.14
45040;BME280;30778;53.574;7.770;2022-08-11T05:16:53;102472.59;;;15.34;52.88
45040;BME280;30778;53.574;7.770;2022-08-11T05:19:37;102475.63;;;15.49;51.75
45040;BME280;30778;53.574;7.770;2022-08-11T05:22:27;102479.13;;;15.49;52.11
45040;BME280;30778;53.574;7.770;2022-08-11T05:25:16;102468.63;;;15.48;51.98
45040;BME280;30778;53.574;7.770;2022-08-11T05:28:13;102467.56;;;15.53;52.31
45040;BME280;30778;53.574;7.770;2022-08-11T05:31:03;102473.34;;;15.63;51.70
45040;BME280;30778;53.574;7.770;2022-08-11T05:33:51;102467.03;;;17.04;49.03
45040;BME280;30778;53.574;7.770;2022-08-11T05:36:49;102471.53;;;19.12;43.62
45040;BME280;30778;53.574;7.770;2022-08-11T05:39:32;102466.13;;;19.31;41.77
45040;BME280;30778;53.574;7.770;2022-08-11T05:42:21;102473.28;;;18.40;43.98
45040;BME280;30778;53.574;7.770;2022-08-11T05:45:14;102468.09;;;19.94;41.68
45040;BME280;30778;53.574;7.770;2022-08-11T05:48:08;102467.66;;;22.93;34.92
45040;BME280;30778;53.574;7.770;2022-08-11T05:50:59;102457.53;;;24.84;31.31
45040;BME280;30778;53.574;7.770;2022-08-11T05:53:52;102459.00;;;25.80;30.00
45040;BME280;30778;53.574;7.770;2022-08-11T05:56:59;102455.16;;;26.60;29.13
45040;BME280;30778;53.574;7.770;2022-08-11T05:59:31;102452.78;;;27.30;27.13
45040;BME280;30778;53.574;7.770;2022-08-11T06:02:00;102451.97;;;27.49;26.55
45040;BME280;30778;53.574;7.770;2022-08-11T06:04:30;102457.81;;;26.81;27.78
45040;BME280;30778;53.574;7.770;2022-08-11T06:07:08;102464.16;;;27.22;27.71
45040;BME280;30778;53.574;7.770;2022-08-11T06:09:45;102455.03;;;28.45;26.72
45040;BME280;30778;53.574;7.770;2022-08-11T06:12:27;102457.28;;;28.10;26.31
45040;BME280;30778;53.574;7.770;2022-08-11T06:15:01;102455.03;;;28.45;25.14
45040;BME280;30778;53.574;7.770;2022-08-11T06:17:29;102459.44;;;28.75;24.55
45040;BME280;30778;53.574;7.770;2022-08-11T06:19:59;102451.22;;;28.67;25.24
45040;BME280;30778;53.574;7.770;2022-08-11T06:22:29;102460.34;;;29.60;23.99
45040;BME280;30778;53.574;7.770;2022-08-11T06:25:00;102458.03;;;30.91;22.82
45040;BME280;30778;53.574;7.770;2022-08-11T06:27:33;102461.97;;;31.23;22.01
45040;BME280;30778;53.574;7.770;2022-08-11T06:30:03;102461.72;;;31.42;21.61
45040;BME280;30778;53.574;7.770;2022-08-11T06:32:39;102460.47;;;31.62;21.41
45040;BME280;30778;53.574;7.770;2022-08-11T06:41:20;102455.03;;;30.94;22.20
45040;BME280;30778;53.574;7.770;2022-08-11T06:46:32;102458.75;;;31.53;21.55
45040;BME280;30778;53.574;7.770;2022-08-11T06:49:17;102457.38;;;31.15;21.89
45040;BME280;30778;53.574;7.770;2022-08-11T06:52:05;102457.03;;;30.92;22.54
45040;BME280;30778;53.574;7.770;2022-08-11T06:54:35;102459.56;;;32.05;21.21
45040;BME280;30778;53.574;7.770;2022-08-11T06:57:06;102459.25;;;32.24;21.50
45040;BME280;30778;53.574;7.770;2022-08-11T06:59:52;102451.13;;;32.98;20.39
45040;BME280;30778;53.574;7.770;2022-08-11T07:02:44;102451.28;;;32.96;20.12
45040;BME280;30778;53.574;7.770;2022-08-11T07:05:41;102451.34;;;32.63;20.40
45040;BME280;30778;53.574;7.770;2022-08-11T07:08:31;102450.16;;;32.41;20.34
45040;BME280;30778;53.574;7.770;2022-08-11T07:14:20;102443.00;;;34.69;17.68
45040;BME280;30778;53.574;7.770;2022-08-11T07:17:10;102453.81;;;32.98;18.98
45040;BME280;30778;53.574;7.770;2022-08-11T07:19:46;102451.03;;;34.39;18.54
45040;BME280;30778;53.574;7.770;2022-08-11T07:23:00;102456.44;;;35.00;17.35
45040;BME280;30778;53.574;7.770;2022-08-11T07:25:49;102448.72;;;34.74;17.87
45040;BME280;30778;53.574;7.770;2022-08-11T07:28:44;102446.94;;;34.66;16.86
45040;BME280;30778;53.574;7.770;2022-08-11T07:34:23;102444.31;;;35.33;17.34
45040;BME280;30778;53.574;7.770;2022-08-11T07:36:57;102445.75;;;35.14;17.58
45040;BME280;30778;53.574;7.770;2022-08-11T07:39:28;102448.81;;;35.25;17.48
45040;BME280;30778;53.574;7.770;2022-08-11T07:41:59;102441.69;;;36.40;16.17
45040;BME280;30778;53.574;7.770;2022-08-11T07:44:34;102444.81;;;37.35;14.88
45040;BME280;30778;53.574;7.770;2022-08-11T07:47:26;102447.94;;;36.34;15.76
45040;BME280;30778;53.574;7.770;2022-08-11T07:50:14;102438.47;;;37.21;14.80
45040;BME280;30778;53.574;7.770;2022-08-11T07:53:03;102440.09;;;37.09;15.52
45040;BME280;30778;53.574;7.770;2022-08-11T07:55:28;102442.66;;;36.61;15.10
45040;BME280;30778;53.574;7.770;2022-08-11T07:57:58;102443.63;;;37.51;14.47
45040;BME280;30778;53.574;7.770;2022-08-11T08:00:48;102440.91;;;39.56;13.20
45040;BME280;30778;53.574;7.770;2022-08-11T08:03:35;102434.88;;;38.82;11.96
45040;BME280;30778;53.574;7.770;2022-08-11T08:06:23;102435.56;;;38.44;13.28
45040;BME280;30778;53.574;7.770;2022-08-11T08:09:09;102443.44;;;37.59;14.68
45040;BME280;30778;53.574;7.770;2022-08-11T08:11:59;102445.84;;;38.02;14.20
45040;BME280;30778;53.574;7.770;2022-08-11T08:14:45;102435.97;;;38.08;13.67
45040;BME280;30778;53.574;7.770;2022-08-11T08:17:31;102445.63;;;38.50;13.90
45040;BME280;30778;53.574;7.770;2022-08-11T08:20:20;102441.94;;;37.50;14.04
45040;BME280;30778;53.574;7.770;2022-08-11T08:22:53;102446.97;;;37.05;15.08
45040;BME280;30778;53.574;7.770;2022-08-11T08:25:35;102439.63;;;37.47;14.15
45040;BME280;30778;53.574;7.770;2022-08-11T08:28:08;102445.19;;;37.25;13.90
45040;BME280;30778;53.574;7.770;2022-08-11T08:30:37;102445.41;;;36.89;14.41
45040;BME280;30778;53.574;7.770;2022-08-11T08:33:17;102443.47;;;37.66;13.12
45040;BME280;30778;53.574;7.770;2022-08-11T08:35:44;102439.03;;;37.65;13.73
45040;BME280;30778;53.574;7.770;2022-08-11T08:38:10;102447.50;;;38.03;14.11
45040;BME280;30778;53.574;7.770;2022-08-11T08:40:42;102438.94;;;38.20;13.20
45040;BME280;30778;53.574;7.770;2022-08-11T08:43:14;102433.81;;;39.42;12.78
45040;BME280;30778;53.574;7.770;2022-08-11T08:45:52;102444.56;;;39.36;11.80
45040;BME280;30778;53.574;7.770;2022-08-11T08:48:25;102439.16;;;38.25;12.82
45040;BME280;30778;53.574;7.770;2022-08-11T08:51:03;102444.81;;;38.36;13.14
45040;BME280;30778;53.574;7.770;2022-08-11T08:53:52;102446.19;;;37.11;13.02
45040;BME280;30778;53.574;7.770;2022-08-11T08:56:26;102439.19;;;36.67;14.78
45040;BME280;30778;53.574;7.770;2022-08-11T08:59:01;102443.53;;;38.12;13.32
45040;BME280;30778;53.574;7.770;2022-08-11T09:01:35;102438.25;;;36.81;13.53
45040;BME280;30778;53.574;7.770;2022-08-11T09:04:02;102445.03;;;35.92;14.07
45040;BME280;30778;53.574;7.770;2022-08-11T09:06:31;102445.03;;;35.56;15.47
45040;BME280;30778;53.574;7.770;2022-08-11T09:09:00;102436.63;;;35.21;15.26
45040;BME280;30778;53.574;7.770;2022-08-11T09:11:29;102445.59;;;34.77;15.39
45040;BME280;30778;53.574;7.770;2022-08-11T09:14:14;102443.28;;;34.74;15.38
45040;BME280;30778;53.574;7.770;2022-08-11T09:16:41;102443.13;;;34.53;15.62
45040;BME280;30778;53.574;7.770;2022-08-11T09:19:18;102433.59;;;33.96;15.56
45040;BME280;30778;53.574;7.770;2022-08-11T09:21:50;102429.25;;;33.55;15.61
45040;BME280;30778;53.574;7.770;2022-08-11T09:24:38;102438.75;;;33.03;15.96
45040;BME280;30778;53.574;7.770;2022-08-11T09:27:37;102432.88;;;32.01;16.70
45040;BME280;30778;53.574;7.770;2022-08-11T09:30:07;102434.16;;;31.30;17.30
45040;BME280;30778;53.574;7.770;2022-08-11T09:32:38;102427.44;;;30.56;18.95
45040;BME280;30778;53.574;7.770;2022-08-11T09:35:10;102427.16;;;30.23;17.74
45040;BME280;30778;53.574;7.770;2022-08-11T09:37:39;102418.34;;;30.83;17.94
45040;BME280;30778;53.574;7.770;2022-08-11T09:40:26;102422.78;;;30.66;17.74
45040;BME280;30778;53.574;7.770;2022-08-11T09:42:59;102419.75;;;30.25;18.27
45040;BME280;30778;53.574;7.770;2022-08-11T09:45:49;102409.94;;;30.06;18.99
45040;BME280;30778;53.574;7.770;2022-08-11T09:48:19;102405.81;;;30.30;17.97
45040;BME280;30778;53.574;7.770;2022-08-11T09:50:51;102413.88;;;30.48;18.10
45040;BME280;30778;53.574;7.770;2022-08-11T09:53:20;102416.50;;;30.84;17.77
45040;BME280;30778;53.574;7.770;2022-08-11T09:55:48;102417.88;;;30.44;17.60
45040;BME280;30778;53.574;7.770;2022-08-11T09:58:20;102416.25;;;30.33;17.92
45040;BME280;30778;53.574;7.770;2022-08-11T10:00:55;102409.53;;;30.29;18.64
45040;BME280;30778;53.574;7.770;2022-08-11T10:03:27;102414.66;;;30.58;18.37
45040;BME280;30778;53.574;7.770;2022-08-11T10:06:03;102406.38;;;30.86;17.52
45040;BME280;30778;53.574;7.770;2022-08-11T10:08:51;102397.16;;;31.23;16.46
45040;BME280;30778;53.574;7.770;2022-08-11T10:11:22;102397.47;;;31.19;17.11
45040;BME280;30778;53.574;7.770;2022-08-11T10:13:51;102397.00;;;31.91;17.19
45040;BME280;30778;53.574;7.770;2022-08-11T10:16:39;102395.41;;;31.48;16.63
45040;BME280;30778;53.574;7.770;2022-08-11T10:19:07;102396.59;;;31.53;16.16
45040;BME280;30778;53.574;7.770;2022-08-11T10:21:41;102394.59;;;31.64;15.97
45040;BME280;30778;53.574;7.770;2022-08-11T10:24:09;102389.38;;;31.54;15.83
45040;BME280;30778;53.574;7.770;2022-08-11T10:26:57;102398.44;;;31.10;16.17
45040;BME280;30778;53.574;7.770;2022-08-11T10:29:27;102400.41;;;31.34;15.86
45040;BME280;30778;53.574;7.770;2022-08-11T10:32:21;102402.03;;;30.93;16.81
45040;BME280;30778;53.574;7.770;2022-08-11T10:35:09;102385.75;;;31.45;17.06
45040;BME280;30778;53.574;7.770;2022-08-11T10:37:40;102389.59;;;31.93;16.42
45040;BME280;30778;53.574;7.770;2022-08-11T10:40:15;102392.66;;;31.39;15.98
45040;BME280;30778;53.574;7.770;2022-08-11T10:42:44;102390.59;;;30.99;16.23
45040;BME280;30778;53.574;7.770;2022-08-11T10:45:39;102391.78;;;30.96;16.53
45040;BME280;30778;53.574;7.770;2022-08-11T10:48:29;102386.56;;;32.05;15.75
45040;BME280;30778;53.574;7.770;2022-08-11T10:50:58;102385.47;;;31.56;15.38
45040;BME280;30778;53.574;7.770;2022-08-11T10:53:50;102387.84;;;31.59;15.71
45040;BME280;30778;53.574;7.770;2022-08-11T10:56:41;102375.75;;;32.05;14.88
45040;BME280;30778;53.574;7.770;2022-08-11T10:59:28;102375.97;;;33.00;15.62
45040;BME280;30778;53.574;7.770;2022-08-11T11:01:59;102375.00;;;32.93;14.93
45040;BME280;30778;53.574;7.770;2022-08-11T11:08:00;102370.59;;;31.52;15.78
45040;BME280;30778;53.574;7.770;2022-08-11T11:10:51;102376.63;;;30.77;16.58
45040;BME280;30778;53.574;7.770;2022-08-11T11:13:20;102379.69;;;31.09;16.55
45040;BME280;30778;53.574;7.770;2022-08-11T11:16:11;102370.50;;;31.36;16.23
45040;BME280;30778;53.574;7.770;2022-08-11T11:19:14;102365.88;;;31.62;16.02
45040;BME280;30778;53.574;7.770;2022-08-11T11:21:44;102370.03;;;32.08;15.24
45040;BME280;30778;53.574;7.770;2022-08-11T11:37:43;102360.47;;;31.62;15.26
45040;BME280;30778;53.574;7.770;2022-08-11T11:40:13;102353.56;;;31.52;15.63
45040;BME280;30778;53.574;7.770;2022-08-11T11:42:43;102361.38;;;31.20;15.90
45040;BME280;30778;53.574;7.770;2022-08-11T11:45:11;102355.63;;;31.24;16.75
45040;BME280;30778;53.574;7.770;2022-08-11T11:47:44;102355.47;;;31.25;16.04
45040;BME280;30778;53.574;7.770;2022-08-11T11:50:11;102361.53;;;31.70;16.34
45040;BME280;30778;53.574;7.770;2022-08-11T11:52:51;102350.91;;;32.09;15.95
45040;BME280;30778;53.574;7.770;2022-08-11T11:55:31;102349.69;;;31.71;14.96
45040;BME280;30778;53.574;7.770;2022-08-11T11:58:03;102347.69;;;32.14;15.04
45040;BME280;30778;53.574;7.770;2022-08-11T12:00:51;102340.56;;;32.29;16.04
45040;BME280;30778;53.574;7.770;2022-08-11T12:03:36;102342.34;;;32.78;14.50
45040;BME280;30778;53.574;7.770;2022-08-11T12:06:06;102337.69;;;33.03;13.92
45040;BME280;30778;53.574;7.770;2022-08-11T12:08:44;102338.63;;;32.87;14.13
45040;BME280;30778;53.574;7.770;2022-08-11T12:11:14;102342.22;;;31.65;16.71
45040;BME280;30778;53.574;7.770;2022-08-11T12:14:04;102336.53;;;32.00;15.46
45040;BME280;30778;53.574;7.770;2022-08-11T12:16:31;102349.72;;;32.12;14.88
45040;BME280;30778;53.574;7.770;2022-08-11T12:19:05;102342.97;;;32.24;14.81
45040;BME280;30778;53.574;7.770;2022-08-11T12:21:31;102334.44;;;32.68;15.01
45040;BME280;30778;53.574;7.770;2022-08-11T12:24:05;102340.56;;;32.54;14.92
45040;BME280;30778;53.574;7.770;2022-08-11T12:26:52;102332.09;;;32.57;14.46
45040;BME280;30778;53.574;7.770;2022-08-11T12:29:39;102331.47;;;32.06;17.13
45040;BME280;30778;53.574;7.770;2022-08-11T12:32:06;102330.09;;;32.26;17.82
45040;BME280;30778;53.574;7.770;2022-08-11T12:34:35;102318.75;;;32.55;16.27
45040;BME280;30778;53.574;7.770;2022-08-11T12:37:02;102321.16;;;31.93;16.57
45040;BME280;30778;53.574;7.770;2022-08-11T12:39:46;102324.34;;;31.80;18.11
45040;BME280;30778;53.574;7.770;2022-08-11T12:42:35;102320.47;;;32.07;17.17
45040;BME280;30778;53.574;7.770;2022-08-11T12:45:33;102315.72;;;31.68;17.16
45040;BME280;30778;53.574;7.770;2022-08-11T12:48:15;102318.66;;;30.82;17.40
45040;BME280;30778;53.574;7.770;2022-08-11T12:51:11;102312.88;;;31.11;18.28
45040;BME280;30778;53.574;7.770;2022-08-11T12:56:53;102310.34;;;31.93;17.47
45040;BME280;30778;53.574;7.770;2022-08-11T12:59:41;102306.09;;;32.39;17.12
45040;BME280;30778;53.574;7.770;2022-08-11T13:02:26;102304.72;;;32.27;16.34
45040;BME280;30778;53.574;7.770;2022-08-11T13:05:23;102299.38;;;31.94;18.13
45040;BME280;30778;53.574;7.770;2022-08-11T13:07:51;102303.41;;;31.90;17.15
45040;BME280;30778;53.574;7.770;2022-08-11T13:10:25;102300.38;;;31.93;17.07
45040;BME280;30778;53.574;7.770;2022-08-11T13:13:13;102299.34;;;32.11;17.23
45040;BME280;30778;53.574;7.770;2022-08-11T13:15:40;102296.50;;;32.76;16.71
45040;BME280;30778;53.574;7.770;2022-08-11T13:18:15;102299.72;;;32.08;16.85
45040;BME280;30778;53.574;7.770;2022-08-11T13:20:41;102298.69;;;32.00;17.07
45040;BME280;30778;53.574;7.770;2022-08-11T13:23:09;102292.56;;;32.48;17.03
45040;BME280;30778;53.574;7.770;2022-08-11T13:25:38;102297.31;;;32.46;16.59
45040;BME280;30778;53.574;7.770;2022-08-11T13:28:07;102302.13;;;32.58;16.47
45040;BME280;30778;53.574;7.770;2022-08-11T13:30:38;102296.63;;;32.43;17.05
45040;BME280;30778;53.574;7.770;2022-08-11T13:33:24;102296.50;;;32.84;16.80
45040;BME280;30778;53.574;7.770;2022-08-11T13:35:52;102289.47;;;32.98;16.24
45040;BME280;30778;53.574;7.770;2022-08-11T13:38:26;102282.38;;;32.58;16.58
45040;BME280;30778;53.574;7.770;2022-08-11T13:40:59;102295.63;;;32.20;17.42
45040;BME280;30778;53.574;7.770;2022-08-11T13:43:25;102297.94;;;32.56;17.41
45040;BME280;30778;53.574;7.770;2022-08-11T13:45:54;102295.81;;;32.74;16.68
45040;BME280;30778;53.574;7.770;2022-08-11T13:48:42;102291.88;;;32.46;17.19
45040;BME280;30778;53.574;7.770;2022-08-11T13:51:09;102288.84;;;32.40;16.54
45040;BME280;30778;53.574;7.770;2022-08-11T13:54:03;102291.88;;;32.46;17.12
45040;BME280;30778;53.574;7.770;2022-08-11T13:56:29;102290.22;;;32.20;17.41
45040;BME280;30778;53.574;7.770;2022-08-11T13:58:56;102281.78;;;31.98;16.76
45040;BME280;30778;53.574;7.770;2022-08-11T14:01:27;102276.72;;;31.71;17.29
45040;BME280;30778;53.574;7.770;2022-08-11T14:03:53;102268.88;;;31.27;17.44
45040;BME280;30778;53.574;7.770;2022-08-11T14:06:21;102273.34;;;31.52;17.35
45040;BME280;30778;53.574;7.770;2022-08-11T14:08:48;102274.34;;;31.76;17.78
45040;BME280;30778;53.574;7.770;2022-08-11T14:11:18;102267.09;;;32.01;17.18
45040;BME280;30778;53.574;7.770;2022-08-11T14:14:25;102268.63;;;31.95;17.48
45040;BME280;30778;53.574;7.770;2022-08-11T14:16:54;102259.16;;;31.83;17.69
45040;BME280;30778;53.574;7.770;2022-08-11T14:19:23;102264.25;;;31.94;16.98
45040;BME280;30778;53.574;7.770;2022-08-11T14:21:50;102259.81;;;31.60;17.85
45040;BME280;30778;53.574;7.770;2022-08-11T14:24:35;102255.41;;;31.43;17.94
45040;BME280;30778;53.574;7.770;2022-08-11T14:27:02;102258.81;;;31.53;17.61
45040;BME280;30778;53.574;7.770;2022-08-11T14:29:28;102259.06;;;31.17;17.59
45040;BME280;30778;53.574;7.770;2022-08-11T14:32:01;102250.81;;;31.35;17.92
45040;BME280;30778;53.574;7.770;2022-08-11T14:34:28;102246.94;;;31.46;18.19
45040;BME280;30778;53.574;7.770;2022-08-11T14:36:56;102257.13;;;31.93;18.18
45040;BME280;30778;53.574;7.770;2022-08-11T14:39:31;102249.00;;;31.77;17.77
45040;BME280;30778;53.574;7.770;2022-08-11T14:42:05;102252.22;;;31.48;18.01
45040;BME280;30778;53.574;7.770;2022-08-11T14:44:56;102250.72;;;31.61;17.56
45040;BME280;30778;53.574;7.770;2022-08-11T14:47:42;102253.91;;;30.98;18.59
45040;BME280;30778;53.574;7.770;2022-08-11T14:50:17;102248.09;;;30.68;18.18
45040;BME280;30778;53.574;7.770;2022-08-11T14:53:01;102254.50;;;30.41;18.82
45040;BME280;30778;53.574;7.770;2022-08-11T14:55:31;102254.91;;;30.20;18.96
45040;BME280;30778;53.574;7.770;2022-08-11T14:58:19;102252.38;;;30.18;18.90
45040;BME280;30778;53.574;7.770;2022-08-11T15:00:45;102246.34;;;30.25;19.36
45040;BME280;30778;53.574;7.770;2022-08-11T15:03:13;102252.13;;;30.64;18.67
45040;BME280;30778;53.574;7.770;2022-08-11T15:05:52;102237.00;;;30.45;18.96
45040;BME280;30778;53.574;7.770;2022-08-11T15:08:19;102234.75;;;29.62;19.82
45040;BME280;30778;53.574;7.770;2022-08-11T15:10:45;102241.94;;;29.80;19.92
45040;BME280;30778;53.574;7.770;2022-08-11T15:13:16;102240.13;;;29.80;19.35
45040;BME280;30778;53.574;7.770;2022-08-11T15:15:47;102239.34;;;29.70;20.27
45040;BME280;30778;53.574;7.770;2022-08-11T15:18:32;102237.66;;;29.69;20.06
45040;BME280;30778;53.574;7.770;2022-08-11T15:20:58;102241.84;;;29.89;19.39
45040;BME280;30778;53.574;7.770;2022-08-11T15:23:42;102231.75;;;30.09;19.52
45040;BME280;30778;53.574;7.770;2022-08-11T15:26:31;102222.00;;;30.43;18.61
45040;BME280;30778;53.574;7.770;2022-08-11T15:29:27;102234.53;;;30.26;19.41
45040;BME280;30778;53.574;7.770;2022-08-11T15:32:13;102228.56;;;29.52;19.87
45040;BME280;30778;53.574;7.770;2022-08-11T15:34:49;102233.66;;;29.09;20.07
45040;BME280;30778;53.574;7.770;2022-08-11T15:37:40;102221.41;;;29.78;19.52
45040;BME280;30778;53.574;7.770;2022-08-11T15:45:46;102214.63;;;29.21;20.38
45040;BME280;30778;53.574;7.770;2022-08-11T15:53:50;102207.78;;;28.81;21.28
45040;BME280;30778;53.574;7.770;2022-08-11T15:56:16;102205.09;;;28.43;21.71
45040;BME280;30778;53.574;7.770;2022-08-11T15:58:46;102200.75;;;28.70;21.50
45040;BME280;30778;53.574;7.770;2022-08-11T16:01:32;102202.91;;;28.66;21.63
45040;BME280;30778;53.574;7.770;2022-08-11T16:04:20;102202.59;;;28.97;20.80
45040;BME280;30778;53.574;7.770;2022-08-11T16:06:53;102198.63;;;29.19;20.68
45040;BME280;30778;53.574;7.770;2022-08-11T16:09:39;102202.22;;;29.10;21.43
45040;BME280;30778;53.574;7.770;2022-08-11T16:12:12;102195.56;;;29.32;21.60
45040;BME280;30778;53.574;7.770;2022-08-11T16:14:42;102189.56;;;29.20;21.03
45040;BME280;30778;53.574;7.770;2022-08-11T16:17:30;102192.44;;;28.91;21.20
45040;BME280;30778;53.574;7.770;2022-08-11T16:19:58;102183.94;;;28.58;21.75
45040;BME280;30778;53.574;7.770;2022-08-11T16:22:28;102184.22;;;28.27;22.63
45040;BME280;30778;53.574;7.770;2022-08-11T16:25:09;102183.06;;;27.92;23.07
45040;BME280;30778;53.574;7.770;2022-08-11T16:27:40;102182.72;;;28.05;22.93
45040;BME280;30778;53.574;7.770;2022-08-11T16:30:07;102186.19;;;28.35;22.35
45040;BME280;30778;53.574;7.770;2022-08-11T16:32:37;102173.06;;;28.22;22.62
45040;BME280;30778;53.574;7.770;2022-08-11T16:35:07;102175.88;;;28.30;22.60
45040;BME280;30778;53.574;7.770;2022-08-11T16:37:54;102172.56;;;28.46;21.99
45040;BME280;30778;53.574;7.770;2022-08-11T16:40:41;102175.00;;;28.67;21.76
45040;BME280;30778;53.574;7.770;2022-08-11T16:43:12;102175.75;;;28.60;22.70
45040;BME280;30778;53.574;7.770;2022-08-11T16:45:57;102174.78;;;28.51;23.01
45040;BME280;30778;53.574;7.770;2022-08-11T16:49:26;102172.38;;;28.10;23.23
45040;BME280;30778;53.574;7.770;2022-08-11T16:51:53;102170.34;;;28.32;23.05
45040;BME280;30778;53.574;7.770;2022-08-11T16:54:19;102160.84;;;28.38;22.78
45040;BME280;30778;53.574;7.770;2022-08-11T16:56:52;102165.97;;;27.84;23.63
45040;BME280;30778;53.574;7.770;2022-08-11T16:59:36;102164.66;;;27.98;23.84
45040;BME280;30778;53.574;7.770;2022-08-11T17:02:08;102162.47;;;27.35;23.87
45040;BME280;30778;53.574;7.770;2022-08-11T17:04:46;102162.88;;;27.30;23.82
45040;BME280;30778;53.574;7.770;2022-08-11T17:07:36;102159.91;;;27.33;23.81
45040;BME280;30778;53.574;7.770;2022-08-11T17:10:26;102162.59;;;27.33;24.39
45040;BME280;30778;53.574;7.770;2022-08-11T17:13:11;102164.31;;;27.34;24.54
45040;BME280;30778;53.574;7.770;2022-08-11T17:15:46;102161.47;;;27.26;24.96
45040;BME280;30778;53.574;7.770;2022-08-11T17:21:21;102158.34;;;26.20;26.51
45040;BME280;30778;53.574;7.770;2022-08-11T17:23:54;102162.31;;;26.05;26.87
45040;BME280;30778;53.574;7.770;2022-08-11T17:26:32;102161.16;;;26.28;26.47
45040;BME280;30778;53.574;7.770;2022-08-11T17:29:32;102157.78;;;26.26;26.21
45040;BME280;30778;53.574;7.770;2022-08-11T17:32:06;102158.72;;;25.95;27.19
45040;BME280;30778;53.574;7.770;2022-08-11T17:34:54;102160.59;;;25.62;27.58
45040;BME280;30778;53.574;7.770;2022-08-11T17:37:39;102156.97;;;25.63;27.63
45040;BME280;30778;53.574;7.770;2022-08-11T17:40:08;102158.47;;;25.56;27.95
45040;BME280;30778;53.574;7.770;2022-08-11T17:42:36;102155.19;;;25.52;28.02